createdAt,value
2022-12-11T00:03:00.624Z,-1.26
2022-12-11T00:06:13.693Z,-1.28
2022-12-11T00:09:15.346Z,-1.32
2022-12-11T00:12:16.939Z,-1.27
2022-12-11T00:15:18.768Z,-1.31
2022-12-11T00:18:20.509Z,-1.35
2022-12-11T00:21:22.354Z,-1.33
2022-12-11T00:24:24.064Z,-1.32
2022-12-11T00:27:26.139Z,-1.35
2022-12-11T00:30:27.793Z,-1.34
2022-12-11T00:33:29.402Z,-1.34
2022-12-11T00:36:31.186Z,-1.34
2022-12-11T00:39:32.836Z,-1.30
2022-12-11T00:42:34.538Z,-1.30
2022-12-11T00:45:41.945Z,-1.28
2022-12-11T00:48:44.064Z,-1.33
2022-12-11T00:51:46.047Z,-1.31
2022-12-11T00:54:47.739Z,-1.33
2022-12-11T00:57:52.363Z,-1.36
2022-12-11T01:00:54.502Z,-1.39
2022-12-11T01:03:56.377Z,-1.36
2022-12-11T01:06:58.259Z,-1.37
2022-12-11T01:10:18.722Z,-1.38
2022-12-11T01:13:20.517Z,-1.43
2022-12-11T01:16:22.111Z,-1.44
2022-12-11T01:19:25.122Z,-1.43
2022-12-11T01:22:26.838Z,-1.37
2022-12-11T01:25:29.435Z,-1.38
2022-12-11T01:28:31.174Z,-1.39
2022-12-11T01:31:33.861Z,-1.38
2022-12-11T01:34:35.753Z,-1.36
2022-12-11T01:37:37.541Z,-1.37
2022-12-11T01:40:51.494Z,-1.34
2022-12-11T01:43:59.294Z,-1.39
2022-12-11T01:47:00.923Z,-1.38
2022-12-11T01:50:02.763Z,-1.33
2022-12-11T01:53:08.320Z,-1.35
2022-12-11T01:56:10.816Z,-1.40
2022-12-11T01:59:15.354Z,-1.40
2022-12-11T02:02:31.916Z,-1.38
2022-12-11T02:05:33.650Z,-1.42
2022-12-11T02:08:35.483Z,-1.42
2022-12-11T02:11:50.916Z,-1.42
2022-12-11T02:14:52.611Z,-1.47
2022-12-11T02:18:30.567Z,-1.42
2022-12-11T02:21:39.321Z,-1.46
2022-12-11T02:24:59.210Z,-1.43
2022-12-11T02:28:28.972Z,-1.41
2022-12-11T02:31:53.838Z,-1.49
2022-12-11T02:35:11.099Z,-1.47
2022-12-11T02:38:36.016Z,-1.52
2022-12-11T02:41:41.743Z,-1.48
2022-12-11T02:44:44.723Z,-1.46
2022-12-11T02:47:48.499Z,-1.43
2022-12-11T02:50:56.672Z,-1.45
2022-12-11T02:53:59.681Z,-1.44
2022-12-11T02:57:33.678Z,-1.49
2022-12-11T03:00:35.563Z,-1.53
2022-12-11T03:03:37.605Z,-1.47
2022-12-11T03:06:51.701Z,-1.45
2022-12-11T03:09:53.863Z,-1.46
2022-12-11T03:12:58.038Z,-1.50
2022-12-11T03:16:31.306Z,-1.55
2022-12-11T03:19:46.142Z,-1.53
2022-12-11T03:23:11.081Z,-1.49
2022-12-11T03:26:15.622Z,-1.49
2022-12-11T03:29:21.690Z,-1.46
2022-12-11T03:32:30.083Z,-1.46
2022-12-11T03:35:58.909Z,-1.46
2022-12-11T03:39:12.610Z,-1.45
2022-12-11T03:42:17.072Z,-1.47
2022-12-11T03:45:21.050Z,-1.50
2022-12-11T03:48:25.474Z,-1.49
2022-12-11T03:51:31.133Z,-1.52
2022-12-11T03:54:34.928Z,-1.49
2022-12-11T03:57:38.112Z,-1.48
2022-12-11T04:00:39.957Z,-1.52
2022-12-11T04:03:41.920Z,-1.49
2022-12-11T04:06:43.841Z,-1.52
2022-12-11T04:09:45.413Z,-1.54
2022-12-11T04:12:47.066Z,-1.54
2022-12-11T04:15:49.450Z,-1.55
2022-12-11T04:19:09.754Z,-1.57
2022-12-11T04:22:31.598Z,-1.58
2022-12-11T04:25:33.222Z,-1.54
2022-12-11T04:28:35.444Z,-1.58
2022-12-11T04:31:37.319Z,-1.59
2022-12-11T04:34:40.914Z,-1.62
2022-12-11T04:37:42.928Z,-1.61
2022-12-11T04:40:44.622Z,-1.62
2022-12-11T04:43:46.503Z,-1.66
2022-12-11T04:46:48.158Z,-1.63
2022-12-11T04:49:50.145Z,-1.67
2022-12-11T04:52:55.425Z,-1.68
2022-12-11T04:55:57.222Z,-1.64
2022-12-11T04:58:59.009Z,-1.65
2022-12-11T05:02:01.086Z,-1.63
2022-12-11T05:05:04.475Z,-1.62
2022-12-11T05:08:06.486Z,-1.63
2022-12-11T05:11:11.777Z,-1.67
2022-12-11T05:14:14.192Z,-1.67
2022-12-11T05:17:15.788Z,-1.69
2022-12-11T05:20:17.725Z,-1.70
2022-12-11T05:23:19.294Z,-1.72
2022-12-11T05:26:21.357Z,-1.67
2022-12-11T05:29:23.026Z,-1.69
2022-12-11T05:32:24.783Z,-1.68
2022-12-11T05:35:26.610Z,-1.64
2022-12-11T05:38:28.610Z,-1.64
2022-12-11T05:41:33.010Z,-1.67
2022-12-11T05:44:34.941Z,-1.70
2022-12-11T05:47:36.553Z,-1.72
2022-12-11T05:50:38.408Z,-1.71
2022-12-11T05:53:44.048Z,-1.70
2022-12-11T05:56:45.656Z,-1.71
2022-12-11T05:59:47.328Z,-1.65
2022-12-11T06:02:49.720Z,-1.62
2022-12-11T06:05:51.700Z,-1.65
2022-12-11T06:08:55.076Z,-1.70
2022-12-11T06:11:56.680Z,-1.71
2022-12-11T06:14:58.271Z,-1.73
2022-12-11T06:18:00.134Z,-1.71
2022-12-11T06:21:01.983Z,-1.70
2022-12-11T06:24:04.583Z,-1.68
2022-12-11T06:27:06.291Z,-1.68
2022-12-11T06:30:08.730Z,-1.67
2022-12-11T06:33:10.546Z,-1.68
2022-12-11T06:36:20.649Z,-1.66
2022-12-11T06:39:22.334Z,-1.71
2022-12-11T06:42:24.180Z,-1.73
2022-12-11T06:45:26.270Z,-1.73
2022-12-11T06:48:28.611Z,-1.69
2022-12-11T06:51:31.232Z,-1.74
2022-12-11T06:54:32.993Z,-1.74
2022-12-11T06:57:34.930Z,-1.75
2022-12-11T07:00:38.231Z,-1.73
2022-12-11T07:03:39.854Z,-1.68
2022-12-11T07:06:42.724Z,-1.67
2022-12-11T07:09:44.592Z,-1.68
2022-12-11T07:12:46.415Z,-1.67
2022-12-11T07:15:48.094Z,-1.66
2022-12-11T07:18:50.770Z,-1.68
2022-12-11T07:21:52.841Z,-1.69
2022-12-11T07:24:54.702Z,-1.66
2022-12-11T07:27:56.510Z,-1.68
2022-12-11T07:30:58.144Z,-1.64
2022-12-11T07:34:02.282Z,-1.63
2022-12-11T07:37:04.117Z,-1.64
2022-12-11T07:40:06.222Z,-1.64
2022-12-11T07:43:08.287Z,-1.63
2022-12-11T07:46:18.845Z,-1.64
2022-12-11T07:49:20.685Z,-1.61
2022-12-11T07:52:22.402Z,-1.61
2022-12-11T07:55:24.306Z,-1.60
2022-12-11T07:58:25.996Z,-1.59
2022-12-11T08:01:30.189Z,-1.61
2022-12-11T08:04:33.011Z,-1.64
2022-12-11T08:07:35.679Z,-1.68
2022-12-11T08:10:37.356Z,-1.62
2022-12-11T08:13:39.572Z,-1.59
2022-12-11T08:16:43.257Z,-1.56
2022-12-11T08:19:45.180Z,-1.53
2022-12-11T08:22:47.133Z,-1.54
2022-12-11T08:25:48.894Z,-1.54
2022-12-11T08:28:51.126Z,-1.54
2022-12-11T08:31:52.991Z,-1.47
2022-12-11T08:34:54.693Z,-1.47
2022-12-11T08:37:56.479Z,-1.44
2022-12-11T08:40:58.332Z,-1.40
2022-12-11T08:44:01.675Z,-1.37
2022-12-11T08:47:03.477Z,-1.39
2022-12-11T08:50:05.430Z,-1.32
2022-12-11T08:53:07.354Z,-1.26
2022-12-11T08:56:12.487Z,-1.25
2022-12-11T08:59:14.192Z,-1.21
2022-12-11T09:02:15.960Z,-1.19
2022-12-11T09:05:17.796Z,-1.16
2022-12-11T09:08:19.949Z,-1.15
2022-12-11T09:11:28.541Z,-1.16
2022-12-11T09:14:30.745Z,-1.14
2022-12-11T09:17:34.427Z,-1.09
2022-12-11T09:20:36.121Z,-1.06
2022-12-11T09:23:37.920Z,-1.05
2022-12-11T09:26:40.492Z,-1.01
2022-12-11T09:29:42.489Z,-1.01
2022-12-11T09:32:44.987Z,-1.02
2022-12-11T09:35:46.778Z,-1.01
2022-12-11T09:38:49.536Z,-0.92
2022-12-11T09:42:09.858Z,-0.93
2022-12-11T09:45:15.424Z,-0.88
2022-12-11T09:48:22.216Z,-0.83
2022-12-11T09:51:48.694Z,-0.82
2022-12-11T09:55:01.141Z,-0.82
2022-12-11T09:58:41.153Z,-0.81
2022-12-11T10:01:51.825Z,-0.76
2022-12-11T10:05:18.993Z,-0.75
2022-12-11T10:08:37.530Z,-0.80
2022-12-11T10:12:19.634Z,-0.74
2022-12-11T10:15:59.374Z,-0.67
2022-12-11T10:19:01.532Z,-0.64
2022-12-11T10:22:03.952Z,-0.67
2022-12-11T10:25:11.084Z,-0.72
2022-12-11T10:28:20.935Z,-0.73
2022-12-11T10:31:22.520Z,-0.70
2022-12-11T10:34:32.978Z,-0.63
2022-12-11T10:37:34.767Z,-0.63
2022-12-11T10:40:39.257Z,-0.60
2022-12-11T10:43:44.418Z,-0.53
2022-12-11T10:46:48.218Z,-0.48
2022-12-11T10:49:58.681Z,-0.46
2022-12-11T10:53:00.937Z,-0.47
2022-12-11T10:56:02.749Z,-0.45
2022-12-11T10:59:05.122Z,-0.44
2022-12-11T11:02:36.440Z,-0.42
2022-12-11T11:05:38.434Z,-0.43
2022-12-11T11:08:44.170Z,-0.36
2022-12-11T11:11:50.476Z,-0.32
2022-12-11T11:15:08.086Z,-0.32
2022-12-11T11:18:22.942Z,-0.35
2022-12-11T11:21:26.435Z,-0.34
2022-12-11T11:24:44.256Z,-0.28
2022-12-11T11:27:50.599Z,-0.22
2022-12-11T11:31:02.756Z,-0.24
2022-12-11T11:34:10.940Z,-0.23
2022-12-11T11:37:32.776Z,-0.26
2022-12-11T11:40:42.238Z,-0.21
2022-12-11T11:44:12.309Z,-0.22
2022-12-11T11:47:26.782Z,-0.25
2022-12-11T11:50:35.837Z,-0.26
2022-12-11T11:53:41.501Z,-0.28
2022-12-11T11:56:43.818Z,-0.40
2022-12-11T11:59:52.068Z,-0.54
2022-12-11T12:03:03.554Z,-0.60
2022-12-11T12:06:15.222Z,-0.61
2022-12-11T12:09:39.812Z,-0.69
2022-12-11T12:12:45.827Z,-0.77
2022-12-11T12:15:54.382Z,-0.83
2022-12-11T12:19:14.865Z,-0.81
2022-12-11T12:22:50.828Z,-0.93
2022-12-11T12:26:15.835Z,-1.08
2022-12-11T12:29:45.510Z,-1.23
2022-12-11T12:33:15.350Z,-1.38
2022-12-11T12:36:57.012Z,-1.52
2022-12-11T12:40:15.090Z,-1.58
2022-12-11T12:43:43.782Z,-1.65
2022-12-11T12:47:10.953Z,-1.74
2022-12-11T12:50:23.995Z,-1.82
2022-12-11T12:53:28.859Z,-1.86
2022-12-11T12:56:33.200Z,-1.88
2022-12-11T12:59:34.924Z,-1.90
2022-12-11T13:02:58.719Z,-1.92
2022-12-11T13:06:10.077Z,-1.87
2022-12-11T13:09:28.888Z,-1.92
2022-12-11T13:12:42.666Z,-1.89
2022-12-11T13:15:44.581Z,-1.96
2022-12-11T13:18:48.535Z,-1.99
2022-12-11T13:22:15.404Z,-1.99
2022-12-11T13:25:25.076Z,-2.01
2022-12-11T13:28:41.815Z,-2.01
2022-12-11T13:31:45.487Z,-2.07
2022-12-11T13:34:56.885Z,-2.05
2022-12-11T13:38:06.895Z,-2.07
2022-12-11T13:41:14.705Z,-2.08
2022-12-11T13:44:24.355Z,-2.11
2022-12-11T13:47:27.256Z,-2.17
2022-12-11T13:50:33.101Z,-2.17
2022-12-11T13:53:34.739Z,-2.19
2022-12-11T13:56:37.518Z,-2.21
2022-12-11T13:59:43.667Z,-2.24
2022-12-11T14:02:45.687Z,-2.26
2022-12-11T14:05:47.659Z,-2.26
2022-12-11T14:08:51.896Z,-2.31
2022-12-11T14:11:57.282Z,-2.35
2022-12-11T14:15:02.091Z,-2.40
2022-12-11T14:18:05.577Z,-2.43
2022-12-11T14:21:07.165Z,-2.50
2022-12-11T14:24:14.929Z,-2.56
2022-12-11T14:27:18.644Z,-2.65
2022-12-11T14:30:33.203Z,-2.71
2022-12-11T14:33:47.710Z,-2.76
2022-12-11T14:36:49.779Z,-2.82
2022-12-11T14:40:08.693Z,-2.87
2022-12-11T14:43:25.839Z,-2.91
2022-12-11T14:47:13.429Z,-2.97
2022-12-11T14:50:48.588Z,-3.05
2022-12-11T14:53:54.173Z,-3.10
2022-12-11T14:56:57.016Z,-3.15
2022-12-11T14:59:59.274Z,-3.15
2022-12-11T15:03:07.960Z,-3.13
2022-12-11T15:06:26.343Z,-3.10
2022-12-11T15:09:36.422Z,-3.04
2022-12-11T15:12:44.899Z,-2.98
2022-12-11T15:15:47.826Z,-2.94
2022-12-11T15:18:51.894Z,-2.85
2022-12-11T15:21:55.629Z,-2.88
2022-12-11T15:25:00.688Z,-2.97
2022-12-11T15:28:03.780Z,-3.07
2022-12-11T15:31:25.592Z,-3.18
2022-12-11T15:34:33.735Z,-3.26
2022-12-11T15:37:36.587Z,-3.33
2022-12-11T15:40:38.929Z,-3.39
2022-12-11T15:43:40.713Z,-3.43
2022-12-11T15:46:42.599Z,-3.48
2022-12-11T15:49:44.447Z,-3.52
2022-12-11T15:52:47.561Z,-3.54
2022-12-11T15:55:49.966Z,-3.60
2022-12-11T15:58:51.665Z,-3.64
2022-12-11T16:01:53.675Z,-3.68
2022-12-11T16:04:55.635Z,-3.77
2022-12-11T16:08:00.435Z,-3.76
2022-12-11T16:11:02.155Z,-3.81
2022-12-11T16:14:04.509Z,-3.81
2022-12-11T16:17:07.682Z,-3.80
2022-12-11T16:20:11.096Z,-3.85
2022-12-11T16:23:14.402Z,-3.97
2022-12-11T16:26:16.244Z,-3.94
2022-12-11T16:29:18.431Z,-3.99
2022-12-11T16:32:20.401Z,-4.02
2022-12-11T16:35:22.391Z,-4.00
2022-12-11T16:38:25.632Z,-3.99
2022-12-11T16:41:27.399Z,-3.99
2022-12-11T16:44:29.075Z,-3.97
2022-12-11T16:47:30.752Z,-3.97
2022-12-11T16:50:32.751Z,-3.95
2022-12-11T16:53:34.362Z,-3.94
2022-12-11T16:56:36.647Z,-3.93
2022-12-11T16:59:38.650Z,-3.92
2022-12-11T17:02:40.464Z,-3.88
2022-12-11T17:05:43.471Z,-3.82
2022-12-11T17:08:47.777Z,-3.86
2022-12-11T17:11:49.941Z,-3.89
2022-12-11T17:14:52.798Z,-3.85
2022-12-11T17:17:54.678Z,-3.88
2022-12-11T17:20:56.448Z,-3.91
2022-12-11T17:23:58.155Z,-3.91
2022-12-11T17:27:00.293Z,-3.94
2022-12-11T17:30:02.052Z,-3.94
2022-12-11T17:33:04.494Z,-3.89
2022-12-11T17:36:07.848Z,-3.91
2022-12-11T17:39:10.067Z,-3.90
2022-12-11T17:42:11.757Z,-3.93
2022-12-11T17:45:13.966Z,-3.93
2022-12-11T17:48:16.281Z,-3.91
2022-12-11T17:51:24.071Z,-3.91
2022-12-11T17:54:26.809Z,-3.92
2022-12-11T17:57:28.474Z,-4.04
2022-12-11T18:00:33.273Z,-4.12
2022-12-11T18:03:36.361Z,-4.17
2022-12-11T18:06:38.125Z,-4.12
2022-12-11T18:09:41.130Z,-4.14
2022-12-11T18:12:43.093Z,-4.21
2022-12-11T18:15:45.043Z,-4.23
2022-12-11T18:18:48.379Z,-4.23
2022-12-11T18:21:50.595Z,-4.24
2022-12-11T18:24:52.382Z,-4.21
2022-12-11T18:28:00.647Z,-4.15
2022-12-11T18:31:03.658Z,-4.08
2022-12-11T18:34:06.287Z,-3.99
2022-12-11T18:37:09.321Z,-3.96
2022-12-11T18:40:14.300Z,-3.95
2022-12-11T18:43:16.044Z,-3.95
2022-12-11T18:46:20.498Z,-3.97
2022-12-11T18:49:22.318Z,-3.95
2022-12-11T18:52:24.010Z,-4.00
2022-12-11T18:55:25.966Z,-4.01
2022-12-11T18:58:28.693Z,-4.03
2022-12-11T19:01:32.907Z,-3.99
2022-12-11T19:04:36.200Z,-4.02
2022-12-11T19:07:38.333Z,-4.03
2022-12-11T19:10:45.515Z,-4.03
2022-12-11T19:13:48.216Z,-3.99
2022-12-11T19:16:50.867Z,-3.96
2022-12-11T19:19:52.713Z,-3.93
2022-12-11T19:22:54.775Z,-3.99
2022-12-11T19:25:56.480Z,-3.97
2022-12-11T19:29:00.284Z,-4.02
2022-12-11T19:32:02.626Z,-4.04
2022-12-11T19:35:04.726Z,-4.05
2022-12-11T19:38:08.392Z,-4.11
2022-12-11T19:41:14.676Z,-4.19
2022-12-11T19:44:16.285Z,-4.24
2022-12-11T19:47:18.344Z,-4.27
2022-12-11T19:50:20.689Z,-4.35
2022-12-11T19:53:22.543Z,-4.43
2022-12-11T19:56:24.706Z,-4.44
2022-12-11T19:59:26.424Z,-4.49
2022-12-11T20:02:28.275Z,-4.52
2022-12-11T20:05:30.177Z,-4.59
2022-12-11T20:08:47.766Z,-4.59
2022-12-11T20:11:50.143Z,-4.60
2022-12-11T20:14:52.614Z,-4.67
2022-12-11T20:17:56.041Z,-4.68
2022-12-11T20:21:02.124Z,-4.68
2022-12-11T20:24:04.095Z,-4.65
2022-12-11T20:27:05.985Z,-4.72
2022-12-11T20:30:08.145Z,-4.77
2022-12-11T20:33:10.029Z,-4.78
2022-12-11T20:36:14.340Z,-4.83
2022-12-11T20:39:16.151Z,-4.88
2022-12-11T20:42:18.113Z,-4.87
2022-12-11T20:45:20.393Z,-4.94
2022-12-11T20:48:22.091Z,-4.92
2022-12-11T20:51:26.241Z,-5.00
2022-12-11T20:54:28.438Z,-4.88
2022-12-11T20:57:30.369Z,-4.84
2022-12-11T21:00:32.788Z,-4.71
2022-12-11T21:03:40.461Z,-4.69
2022-12-11T21:06:43.988Z,-4.71
2022-12-11T21:09:45.846Z,-4.74
2022-12-11T21:12:47.773Z,-4.77
2022-12-11T21:15:52.620Z,-4.76
2022-12-11T21:18:56.771Z,-4.71
2022-12-11T21:21:58.612Z,-4.67
2022-12-11T21:25:00.173Z,-4.76
2022-12-11T21:28:02.089Z,-4.78
2022-12-11T21:31:07.752Z,-4.85
2022-12-11T21:34:09.996Z,-4.90
2022-12-11T21:37:11.615Z,-4.91
2022-12-11T21:40:13.723Z,-4.89
2022-12-11T21:43:15.546Z,-4.92
2022-12-11T21:46:20.330Z,-4.91
2022-12-11T21:49:21.976Z,-4.89
2022-12-11T21:52:23.747Z,-4.99
2022-12-11T21:55:25.720Z,-5.04
2022-12-11T21:58:27.203Z,-5.09
2022-12-11T22:01:37.071Z,-5.08
2022-12-11T22:04:39.268Z,-5.13
2022-12-11T22:07:41.123Z,-5.12
2022-12-11T22:10:42.699Z,-5.10
2022-12-11T22:13:44.491Z,-5.12
2022-12-11T22:16:46.391Z,-5.14
2022-12-11T22:19:48.172Z,-5.14
2022-12-11T22:22:49.998Z,-5.12
2022-12-11T22:25:53.502Z,-5.25
2022-12-11T22:28:55.778Z,-5.15
2022-12-11T22:31:58.179Z,-5.21
2022-12-11T22:34:59.775Z,-5.20
2022-12-11T22:38:01.832Z,-5.21
2022-12-11T22:41:21.850Z,-5.25
2022-12-11T22:44:24.082Z,-5.30
2022-12-11T22:47:25.939Z,-5.25
2022-12-11T22:50:27.647Z,-5.24
2022-12-11T22:53:29.356Z,-5.27
2022-12-11T22:56:31.642Z,-5.32
2022-12-11T22:59:34.443Z,-5.37
2022-12-11T23:02:37.796Z,-5.44
2022-12-11T23:05:40.959Z,-5.37
2022-12-11T23:08:43.864Z,-5.40
2022-12-11T23:11:45.718Z,-5.37
2022-12-11T23:14:47.529Z,-5.35
2022-12-11T23:17:50.490Z,-5.33
2022-12-11T23:20:52.088Z,-5.35
2022-12-11T23:23:54.871Z,-5.36
2022-12-11T23:26:56.662Z,-5.36
2022-12-11T23:29:58.628Z,-5.30
2022-12-11T23:33:00.245Z,-5.35
2022-12-11T23:36:02.304Z,-5.36
2022-12-11T23:39:04.365Z,-5.42
2022-12-11T23:42:06.104Z,-5.41
2022-12-11T23:45:07.937Z,-5.44
2022-12-11T23:48:09.615Z,-5.43
2022-12-11T23:51:15.931Z,-5.48
2022-12-11T23:54:17.710Z,-5.55
2022-12-11T23:57:19.434Z,-5.54
